sensor_id;sensor_type;location;lat;lon;timestamp;pressure;altitude;pressure_sealevel;temperature;humidity
67109;BME280;54027;50.786;7.058;2023-09-18T00:00:49;100164.75;;;20.18;100.00
67109;BME280;54027;50.786;7.058;2023-09-18T00:03:18;100168.50;;;20.14;100.00
67109;BME280;54027;50.786;7.058;2023-09-18T00:05:48;100156.41;;;20.12;100.00
67109;BME280;54027;50.786;7.058;2023-09-18T00:08:14;100157.31;;;20.11;100.00
67109;BME280;54027;50.786;7.058;2023-09-18T00:10:40;100145.06;;;20.11;100.00
67109;BME280;54027;50.786;7.058;2023-09-18T00:13:06;100141.59;;;20.11;100.00
67109;BME280;54027;50.786;7.058;2023-09-18T00:15:32;100136.34;;;20.11;100.00
67109;BME280;54027;50.786;7.058;2023-09-18T00:17:57;100130.34;;;20.09;100.00
67109;BME280;54027;50.786;7.058;2023-09-18T00:20:22;100119.00;;;20.08;100.00
67109;BME280;54027;50.786;7.058;2023-09-18T00:22:54;100116.44;;;20.07;100.00
67109;BME280;54027;50.786;7.058;2023-09-18T00:25:21;100112.16;;;20.06;100.00
67109;BME280;54027;50.786;7.058;2023-09-18T00:27:46;100113.06;;;20.05;100.00
67109;BME280;54027;50.786;7.058;2023-09-18T00:30:12;100105.31;;;20.03;100.00
67109;BME280;54027;50.786;7.058;2023-09-18T00:32:37;100112.31;;;20.03;100.00
67109;BME280;54027;50.786;7.058;2023-09-18T00:35:03;100107.16;;;20.01;100.00
67109;BME280;54027;50.786;7.058;2023-09-18T00:37:28;100101.91;;;20.01;100.00
67109;BME280;54027;50.786;7.058;2023-09-18T00:39:54;100102.69;;;20.03;100.00
67109;BME280;54027;50.786;7.058;2023-09-18T00:42:19;100085.31;;;20.01;100.00
67109;BME280;54027;50.786;7.058;2023-09-18T00:44:46;100091.41;;;20.01;100.00
67109;BME280;54027;50.786;7.058;2023-09-18T00:47:13;100101.91;;;20.01;100.00
67109;BME280;54027;50.786;7.058;2023-09-18T00:49:40;100101.34;;;19.96;100.00
67109;BME280;54027;50.786;7.058;2023-09-18T00:52:07;100098.13;;;19.91;100.00
67109;BME280;54027;50.786;7.058;2023-09-18T00:54:35;100095.69;;;19.88;100.00
67109;BME280;54027;50.786;7.058;2023-09-18T00:57:02;100094.84;;;19.88;100.00
67109;BME280;54027;50.786;7.058;2023-09-18T00:59:28;100090.63;;;19.85;100.00
67109;BME280;54027;50.786;7.058;2023-09-18T01:01:54;100085.44;;;19.84;100.00
67109;BME280;54027;50.786;7.058;2023-09-18T01:04:20;100084.53;;;19.85;100.00
67109;BME280;54027;50.786;7.058;2023-09-18T01:06:46;100081.03;;;19.84;100.00
67109;BME280;54027;50.786;7.058;2023-09-18T01:09:16;100076.66;;;19.85;100.00
67109;BME280;54027;50.786;7.058;2023-09-18T01:11:50;100077.50;;;19.85;100.00
67109;BME280;54027;50.786;7.058;2023-09-18T01:17:15;100073.94;;;19.86;100.00
67109;BME280;54027;50.786;7.058;2023-09-18T01:22:10;100074.78;;;19.87;100.00
67109;BME280;54027;50.786;7.058;2023-09-18T01:24:36;100072.16;;;19.87;100.00
67109;BME280;54027;50.786;7.058;2023-09-18T01:27:03;100078.59;;;19.81;100.00
67109;BME280;54027;50.786;7.058;2023-09-18T01:29:30;100074.41;;;19.77;100.00
67109;BME280;54027;50.786;7.058;2023-09-18T01:31:55;100070.28;;;19.73;100.00
67109;BME280;54027;50.786;7.058;2023-09-18T01:34:31;100069.28;;;19.76;100.00
67109;BME280;54027;50.786;7.058;2023-09-18T01:36:58;100062.16;;;19.78;100.00
67109;BME280;54027;50.786;7.058;2023-09-18T01:39:26;100059.63;;;19.76;100.00
67109;BME280;54027;50.786;7.058;2023-09-18T01:41:56;100050.06;;;19.75;100.00
67109;BME280;54027;50.786;7.058;2023-09-18T01:44:21;100049.91;;;19.78;100.00
67109;BME280;54027;50.786;7.058;2023-09-18T01:46:47;100047.28;;;19.78;100.00
67109;BME280;54027;50.786;7.058;2023-09-18T01:49:14;100049.69;;;19.83;100.00
67109;BME280;54027;50.786;7.058;2023-09-18T01:51:39;100052.75;;;19.89;100.00
67109;BME280;54027;50.786;7.058;2023-09-18T01:54:05;100037.53;;;19.96;100.00
67109;BME280;54027;50.786;7.058;2023-09-18T01:56:30;100034.66;;;20.00;100.00
67109;BME280;54027;50.786;7.058;2023-09-18T01:58:55;100043.25;;;20.02;100.00
67109;BME280;54027;50.786;7.058;2023-09-18T02:01:21;100036.13;;;20.04;100.00
67109;BME280;54027;50.786;7.058;2023-09-18T02:03:46;100063.03;;;20.08;100.00
67109;BME280;54027;50.786;7.058;2023-09-18T02:06:12;100058.38;;;20.13;100.00
67109;BME280;54027;50.786;7.058;2023-09-18T02:08:37;100047.44;;;20.21;100.00
67109;BME280;54027;50.786;7.058;2023-09-18T02:11:03;100050.63;;;20.26;100.00
67109;BME280;54027;50.786;7.058;2023-09-18T02:13:29;100053.25;;;20.26;100.00
67109;BME280;54027;50.786;7.058;2023-09-18T02:15:55;100053.16;;;20.27;100.00
67109;BME280;54027;50.786;7.058;2023-09-18T02:18:21;100055.44;;;20.33;100.00
67109;BME280;54027;50.786;7.058;2023-09-18T02:20:46;100050.81;;;20.37;100.00
67109;BME280;54027;50.786;7.058;2023-09-18T02:23:17;100041.84;;;20.41;100.00
67109;BME280;54027;50.786;7.058;2023-09-18T02:25:44;100027.13;;;20.38;100.00
67109;BME280;54027;50.786;7.058;2023-09-18T02:28:09;100025.53;;;20.36;100.00
67109;BME280;54027;50.786;7.058;2023-09-18T02:30:34;100022.97;;;20.34;100.00
67109;BME280;54027;50.786;7.058;2023-09-18T02:33:00;100017.84;;;20.33;100.00
67109;BME280;54027;50.786;7.058;2023-09-18T02:35:28;100010.31;;;20.27;100.00
67109;BME280;54027;50.786;7.058;2023-09-18T02:37:53;99995.63;;;20.24;100.00
67109;BME280;54027;50.786;7.058;2023-09-18T02:40:19;99977.88;;;20.13;100.00
67109;BME280;54027;50.786;7.058;2023-09-18T02:42:44;99966.63;;;20.11;100.00
67109;BME280;54027;50.786;7.058;2023-09-18T02:45:09;99944.78;;;20.11;100.00
67109;BME280;54027;50.786;7.058;2023-09-18T02:47:35;99933.81;;;20.04;100.00
67109;BME280;54027;50.786;7.058;2023-09-18T02:50:04;99909.47;;;20.02;100.00
67109;BME280;54027;50.786;7.058;2023-09-18T02:52:30;99897.94;;;20.05;100.00
67109;BME280;54027;50.786;7.058;2023-09-18T02:54:56;99889.50;;;20.00;100.00
67109;BME280;54027;50.786;7.058;2023-09-18T02:57:21;99888.84;;;19.96;100.00
67109;BME280;54027;50.786;7.058;2023-09-18T02:59:46;99916.13;;;19.94;100.00
67109;BME280;54027;50.786;7.058;2023-09-18T03:02:12;99931.94;;;19.92;100.00
67109;BME280;54027;50.786;7.058;2023-09-18T03:04:37;99918.56;;;19.97;100.00
67109;BME280;54027;50.786;7.058;2023-09-18T03:07:02;99925.28;;;20.01;100.00
67109;BME280;54027;50.786;7.058;2023-09-18T03:09:29;99945.63;;;19.97;100.00
67109;BME280;54027;50.786;7.058;2023-09-18T03:11:54;99972.78;;;19.96;100.00
67109;BME280;54027;50.786;7.058;2023-09-18T03:14:20;99958.94;;;19.94;100.00
67109;BME280;54027;50.786;7.058;2023-09-18T03:16:45;99967.53;;;19.96;100.00
67109;BME280;54027;50.786;7.058;2023-09-18T03:19:10;99975.41;;;19.96;100.00
67109;BME280;54027;50.786;7.058;2023-09-18T03:21:36;99992.84;;;19.97;100.00
67109;BME280;54027;50.786;7.058;2023-09-18T03:24:01;99998.09;;;19.97;100.00
67109;BME280;54027;50.786;7.058;2023-09-18T03:26:28;99999.78;;;19.98;100.00
67109;BME280;54027;50.786;7.058;2023-09-18T03:28:53;99996.41;;;19.96;100.00
67109;BME280;54027;50.786;7.058;2023-09-18T03:31:18;100005.19;;;19.95;100.00
67109;BME280;54027;50.786;7.058;2023-09-18T03:33:44;100004.34;;;19.95;100.00
67109;BME280;54027;50.786;7.058;2023-09-18T03:36:09;99995.66;;;19.94;100.00
67109;BME280;54027;50.786;7.058;2023-09-18T03:38:36;99987.88;;;19.93;100.00
67109;BME280;54027;50.786;7.058;2023-09-18T03:41:02;99980.09;;;19.91;100.00
67109;BME280;54027;50.786;7.058;2023-09-18T03:43:27;99981.88;;;19.91;100.00
67109;BME280;54027;50.786;7.058;2023-09-18T03:45:52;99974.94;;;19.90;100.00
67109;BME280;54027;50.786;7.058;2023-09-18T03:48:18;99976.53;;;19.92;100.00
67109;BME280;54027;50.786;7.058;2023-09-18T03:50:44;99975.66;;;19.92;100.00
67109;BME280;54027;50.786;7.058;2023-09-18T03:53:09;99977.47;;;19.91;100.00
67109;BME280;54027;50.786;7.058;2023-09-18T03:55:35;99974.94;;;19.90;100.00
67109;BME280;54027;50.786;7.058;2023-09-18T03:58:00;99969.69;;;19.90;100.00
67109;BME280;54027;50.786;7.058;2023-09-18T04:00:26;99959.28;;;19.88;100.00
67109;BME280;54027;50.786;7.058;2023-09-18T04:02:51;99958.44;;;19.88;100.00
67109;BME280;54027;50.786;7.058;2023-09-18T04:05:16;99957.53;;;19.89;100.00
67109;BME280;54027;50.786;7.058;2023-09-18T04:07:42;99959.38;;;19.87;100.00
67109;BME280;54027;50.786;7.058;2023-09-18T04:10:11;99957.59;;;19.87;100.00
67109;BME280;54027;50.786;7.058;2023-09-18T04:12:42;99950.75;;;19.85;100.00
67109;BME280;54027;50.786;7.058;2023-09-18T04:15:09;99952.88;;;19.78;100.00
67109;BME280;54027;50.786;7.058;2023-09-18T04:17:34;99953.78;;;19.77;100.00
67109;BME280;54027;50.786;7.058;2023-09-18T04:19:59;99953.16;;;19.74;100.00
67109;BME280;54027;50.786;7.058;2023-09-18T04:22:25;99962.13;;;19.70;100.00
67109;BME280;54027;50.786;7.058;2023-09-18T04:24:50;99964.81;;;19.68;100.00
67109;BME280;54027;50.786;7.058;2023-09-18T04:27:15;99955.94;;;19.71;100.00
67109;BME280;54027;50.786;7.058;2023-09-18T04:29:41;99954.06;;;19.73;100.00
67109;BME280;54027;50.786;7.058;2023-09-18T04:32:06;99941.63;;;19.76;100.00
67109;BME280;54027;50.786;7.058;2023-09-18T04:34:32;99942.22;;;19.81;100.00
67109;BME280;54027;50.786;7.058;2023-09-18T04:36:57;99929.97;;;19.82;100.00
67109;BME280;54027;50.786;7.058;2023-09-18T04:39:23;99919.34;;;19.83;100.00
67109;BME280;54027;50.786;7.058;2023-09-18T04:41:48;99917.03;;;19.79;100.00
67109;BME280;54027;50.786;7.058;2023-09-18T04:44:14;99915.28;;;19.78;100.00
67109;BME280;54027;50.786;7.058;2023-09-18T04:46:39;99911.94;;;19.76;100.00
67109;BME280;54027;50.786;7.058;2023-09-18T04:49:07;99897.91;;;19.77;100.00
67109;BME280;54027;50.786;7.058;2023-09-18T04:51:32;99902.19;;;19.78;100.00
67109;BME280;54027;50.786;7.058;2023-09-18T04:53:58;99918.88;;;19.77;100.00
67109;BME280;54027;50.786;7.058;2023-09-18T04:56:24;99922.41;;;19.76;100.00
67109;BME280;54027;50.786;7.058;2023-09-18T04:58:51;99912.69;;;19.78;100.00
67109;BME280;54027;50.786;7.058;2023-09-18T05:01:16;99933.75;;;19.76;100.00
67109;BME280;54027;50.786;7.058;2023-09-18T05:03:42;99912.84;;;19.75;100.00
67109;BME280;54027;50.786;7.058;2023-09-18T05:06:08;99919.88;;;19.74;100.00
67109;BME280;54027;50.786;7.058;2023-09-18T05:08:33;99924.19;;;19.75;100.00
67109;BME280;54027;50.786;7.058;2023-09-18T05:10:58;99938.16;;;19.76;100.00
67109;BME280;54027;50.786;7.058;2023-09-18T05:13:24;99945.19;;;19.75;100.00
67109;BME280;54027;50.786;7.058;2023-09-18T05:15:50;99948.66;;;19.76;100.00
67109;BME280;54027;50.786;7.058;2023-09-18T05:18:15;99945.91;;;19.77;100.00
67109;BME280;54027;50.786;7.058;2023-09-18T05:20:41;99952.63;;;19.83;100.00
67109;BME280;54027;50.786;7.058;2023-09-18T05:23:07;99968.00;;;19.89;100.00
67109;BME280;54027;50.786;7.058;2023-09-18T05:25:33;99946.75;;;19.93;100.00
67109;BME280;54027;50.786;7.058;2023-09-18T05:28:01;99932.41;;;19.99;100.00
67109;BME280;54027;50.786;7.058;2023-09-18T05:30:30;99938.22;;;20.04;100.00
67109;BME280;54027;50.786;7.058;2023-09-18T05:32:58;99968.09;;;20.01;100.00
67109;BME280;54027;50.786;7.058;2023-09-18T05:35:39;99974.88;;;20.05;100.00
67109;BME280;54027;50.786;7.058;2023-09-18T05:38:05;99973.94;;;20.06;100.00
67109;BME280;54027;50.786;7.058;2023-09-18T05:40:31;99993.31;;;20.04;100.00
67109;BME280;54027;50.786;7.058;2023-09-18T05:42:57;99982.06;;;20.02;100.00
67109;BME280;54027;50.786;7.058;2023-09-18T05:45:23;99989.75;;;20.05;100.00
67109;BME280;54027;50.786;7.058;2023-09-18T05:47:49;99980.97;;;20.06;100.00
67109;BME280;54027;50.786;7.058;2023-09-18T05:50:15;99981.63;;;20.09;100.00
67109;BME280;54027;50.786;7.058;2023-09-18T05:52:42;99993.13;;;20.07;100.00
67109;BME280;54027;50.786;7.058;2023-09-18T05:55:08;99994.47;;;20.14;100.00
67109;BME280;54027;50.786;7.058;2023-09-18T05:57:34;100009.00;;;20.20;100.00
67109;BME280;54027;50.786;7.058;2023-09-18T06:00:00;99999.06;;;20.25;99.07
67109;BME280;54027;50.786;7.058;2023-09-18T06:02:25;99987.44;;;20.29;98.51
67109;BME280;54027;50.786;7.058;2023-09-18T06:04:56;100008.25;;;20.32;98.23
67109;BME280;54027;50.786;7.058;2023-09-18T06:07:24;100001.13;;;20.34;97.77
67109;BME280;54027;50.786;7.058;2023-09-18T06:09:49;100006.97;;;20.39;96.19
67109;BME280;54027;50.786;7.058;2023-09-18T06:12:14;100016.44;;;20.41;96.25
67109;BME280;54027;50.786;7.058;2023-09-18T06:14:40;100008.44;;;20.43;96.42
67109;BME280;54027;50.786;7.058;2023-09-18T06:17:06;100015.41;;;20.44;96.83
67109;BME280;54027;50.786;7.058;2023-09-18T06:19:31;100008.75;;;20.52;95.64
67109;BME280;54027;50.786;7.058;2023-09-18T06:21:58;100010.16;;;20.58;95.24
67109;BME280;54027;50.786;7.058;2023-09-18T06:24:23;99997.66;;;20.61;95.04
67109;BME280;54027;50.786;7.058;2023-09-18T06:26:48;99994.00;;;20.64;93.67
67109;BME280;54027;50.786;7.058;2023-09-18T06:29:14;99997.22;;;20.69;93.69
67109;BME280;54027;50.786;7.058;2023-09-18T06:31:39;100004.09;;;20.72;92.40
67109;BME280;54027;50.786;7.058;2023-09-18T06:34:04;100004.09;;;20.72;92.48
67109;BME280;54027;50.786;7.058;2023-09-18T06:36:30;100007.72;;;20.69;92.15
67109;BME280;54027;50.786;7.058;2023-09-18T06:38:55;100009.50;;;20.68;92.80
67109;BME280;54027;50.786;7.058;2023-09-18T06:41:21;100000.78;;;20.68;92.33
67109;BME280;54027;50.786;7.058;2023-09-18T06:43:46;99987.47;;;20.71;92.96
67109;BME280;54027;50.786;7.058;2023-09-18T06:46:11;99984.38;;;20.79;92.00
67109;BME280;54027;50.786;7.058;2023-09-18T06:48:36;99986.59;;;20.85;92.04
67109;BME280;54027;50.786;7.058;2023-09-18T06:51:02;99994.88;;;20.93;90.80
67109;BME280;54027;50.786;7.058;2023-09-18T06:53:28;100005.63;;;21.02;89.90
67109;BME280;54027;50.786;7.058;2023-09-18T06:55:54;100001.69;;;21.09;88.59
67109;BME280;54027;50.786;7.058;2023-09-18T06:58:19;100001.94;;;21.19;88.69
67109;BME280;54027;50.786;7.058;2023-09-18T07:00:45;100005.13;;;21.24;88.94
67109;BME280;54027;50.786;7.058;2023-09-18T07:03:11;100007.63;;;21.25;88.13
67109;BME280;54027;50.786;7.058;2023-09-18T07:05:37;100005.75;;;21.27;87.18
67109;BME280;54027;50.786;7.058;2023-09-18T07:08:02;100007.22;;;21.32;87.08
67109;BME280;54027;50.786;7.058;2023-09-18T07:10:30;100015.69;;;21.37;87.44
67109;BME280;54027;50.786;7.058;2023-09-18T07:12:55;100011.16;;;21.39;86.41
67109;BME280;54027;50.786;7.058;2023-09-18T07:15:21;100029.81;;;21.48;86.39
67109;BME280;54027;50.786;7.058;2023-09-18T07:17:46;100030.47;;;21.52;86.44
67109;BME280;54027;50.786;7.058;2023-09-18T07:20:13;100035.53;;;21.55;85.77
67109;BME280;54027;50.786;7.058;2023-09-18T07:22:40;100031.91;;;21.57;85.92
67109;BME280;54027;50.786;7.058;2023-09-18T07:25:06;100033.47;;;21.60;85.51
67109;BME280;54027;50.786;7.058;2023-09-18T07:27:32;100044.00;;;21.60;86.23
67109;BME280;54027;50.786;7.058;2023-09-18T07:29:58;100040.63;;;21.58;84.94
67109;BME280;54027;50.786;7.058;2023-09-18T07:32:24;100045.78;;;21.59;85.76
67109;BME280;54027;50.786;7.058;2023-09-18T07:34:51;100059.13;;;21.56;85.86
67109;BME280;54027;50.786;7.058;2023-09-18T07:37:17;100058.34;;;21.54;85.56
67109;BME280;54027;50.786;7.058;2023-09-18T07:39:46;100064.19;;;21.59;85.27
67109;BME280;54027;50.786;7.058;2023-09-18T07:42:11;100061.47;;;21.61;84.80
67109;BME280;54027;50.786;7.058;2023-09-18T07:44:37;100062.94;;;21.65;85.08
67109;BME280;54027;50.786;7.058;2023-09-18T07:47:02;100061.81;;;21.69;85.32
67109;BME280;54027;50.786;7.058;2023-09-18T07:49:27;100053.91;;;21.69;84.82
67109;BME280;54027;50.786;7.058;2023-09-18T07:51:53;100056.22;;;21.61;83.89
67109;BME280;54027;50.786;7.058;2023-09-18T07:54:18;100058.19;;;21.57;84.29
67109;BME280;54027;50.786;7.058;2023-09-18T07:56:43;100057.72;;;21.51;84.37
67109;BME280;54027;50.786;7.058;2023-09-18T07:59:09;100069.28;;;21.48;84.55
67109;BME280;54027;50.786;7.058;2023-09-18T08:01:35;100074.72;;;21.45;84.60
67109;BME280;54027;50.786;7.058;2023-09-18T08:04:00;100080.84;;;21.46;84.83
67109;BME280;54027;50.786;7.058;2023-09-18T08:06:26;100102.50;;;21.49;86.13
67109;BME280;54027;50.786;7.058;2023-09-18T08:08:51;100106.94;;;21.49;85.61
67109;BME280;54027;50.786;7.058;2023-09-18T08:11:16;100112.00;;;21.52;85.31
67109;BME280;54027;50.786;7.058;2023-09-18T08:13:42;100118.84;;;21.54;86.31
67109;BME280;54027;50.786;7.058;2023-09-18T08:16:08;100112.56;;;21.57;85.06
67109;BME280;54027;50.786;7.058;2023-09-18T08:18:33;100100.94;;;21.61;84.92
67109;BME280;54027;50.786;7.058;2023-09-18T08:20:59;100099.56;;;21.68;84.68
67109;BME280;54027;50.786;7.058;2023-09-18T08:23:25;100097.41;;;21.74;84.18
67109;BME280;54027;50.786;7.058;2023-09-18T08:25:50;100103.19;;;21.79;83.62
67109;BME280;54027;50.786;7.058;2023-09-18T08:28:22;100109.03;;;21.85;82.84
67109;BME280;54027;50.786;7.058;2023-09-18T08:30:48;100098.31;;;21.88;82.74
67109;BME280;54027;50.786;7.058;2023-09-18T08:33:13;100099.88;;;21.90;82.62
67109;BME280;54027;50.786;7.058;2023-09-18T08:35:39;100119.03;;;21.92;83.63
67109;BME280;54027;50.786;7.058;2023-09-18T08:38:05;100117.06;;;21.96;83.00
67109;BME280;54027;50.786;7.058;2023-09-18T08:40:30;100106.59;;;21.94;82.69
67109;BME280;54027;50.786;7.058;2023-09-18T08:42:56;100122.97;;;21.99;83.19
67109;BME280;54027;50.786;7.058;2023-09-18T08:45:30;100119.56;;;21.97;81.83
67109;BME280;54027;50.786;7.058;2023-09-18T08:47:58;100120.94;;;22.03;81.62
67109;BME280;54027;50.786;7.058;2023-09-18T08:50:25;100118.69;;;22.11;82.19
67109;BME280;54027;50.786;7.058;2023-09-18T08:52:50;100125.13;;;22.19;82.39
67109;BME280;54027;50.786;7.058;2023-09-18T08:55:16;100119.91;;;22.32;82.88
67109;BME280;54027;50.786;7.058;2023-09-18T08:57:42;100111.81;;;22.48;81.06
67109;BME280;54027;50.786;7.058;2023-09-18T09:00:10;100120.59;;;22.61;80.30
67109;BME280;54027;50.786;7.058;2023-09-18T09:02:41;100113.13;;;22.67;79.89
67109;BME280;54027;50.786;7.058;2023-09-18T09:05:06;100112.56;;;22.75;80.36
67109;BME280;54027;50.786;7.058;2023-09-18T09:07:32;100115.72;;;22.80;80.24
67109;BME280;54027;50.786;7.058;2023-09-18T09:09:57;100110.16;;;22.72;78.93
67109;BME280;54027;50.786;7.058;2023-09-18T09:12:48;100113.97;;;22.68;79.28
67109;BME280;54027;50.786;7.058;2023-09-18T09:15:14;100120.78;;;22.58;78.84
67109;BME280;54027;50.786;7.058;2023-09-18T09:17:41;100131.13;;;22.61;79.24
67109;BME280;54027;50.786;7.058;2023-09-18T09:20:12;100138.91;;;22.62;80.13
67109;BME280;54027;50.786;7.058;2023-09-18T09:22:38;100121.44;;;22.61;78.30
67109;BME280;54027;50.786;7.058;2023-09-18T09:27:47;100126.50;;;22.64;78.63
67109;BME280;54027;50.786;7.058;2023-09-18T09:30:19;100136.72;;;22.69;79.35
67109;BME280;54027;50.786;7.058;2023-09-18T09:32:48;100101.41;;;22.71;77.85
67109;BME280;54027;50.786;7.058;2023-09-18T09:35:26;100102.16;;;22.73;77.46
67109;BME280;54027;50.786;7.058;2023-09-18T09:38:00;100107.94;;;22.78;77.99
67109;BME280;54027;50.786;7.058;2023-09-18T09:40:26;100104.47;;;22.78;77.10
67109;BME280;54027;50.786;7.058;2023-09-18T09:42:54;100102.69;;;22.78;76.77
67109;BME280;54027;50.786;7.058;2023-09-18T09:45:29;100104.25;;;22.81;76.89
67109;BME280;54027;50.786;7.058;2023-09-18T09:48:04;100099.50;;;22.86;76.34
67109;BME280;54027;50.786;7.058;2023-09-18T09:50:31;100088.53;;;22.92;75.91
67109;BME280;54027;50.786;7.058;2023-09-18T09:52:57;100075.75;;;22.99;74.53
67109;BME280;54027;50.786;7.058;2023-09-18T09:55:27;100093.91;;;23.03;75.85
67109;BME280;54027;50.786;7.058;2023-09-18T09:58:04;100059.09;;;23.11;73.80
67109;BME280;54027;50.786;7.058;2023-09-18T10:03:01;100076.69;;;23.35;74.60
67109;BME280;54027;50.786;7.058;2023-09-18T10:05:33;100079.78;;;23.53;73.45
67109;BME280;54027;50.786;7.058;2023-09-18T10:08:03;100068.75;;;23.72;73.22
67109;BME280;54027;50.786;7.058;2023-09-18T10:10:32;100078.53;;;23.93;73.45
67109;BME280;54027;50.786;7.058;2023-09-18T10:13:07;100070.22;;;24.11;72.93
67109;BME280;54027;50.786;7.058;2023-09-18T10:15:36;100051.88;;;24.20;71.59
67109;BME280;54027;50.786;7.058;2023-09-18T10:18:05;100053.41;;;24.01;70.69
67109;BME280;54027;50.786;7.058;2023-09-18T10:20:37;100059.13;;;23.94;71.95
67109;BME280;54027;50.786;7.058;2023-09-18T10:23:09;100098.50;;;23.97;72.86
67109;BME280;54027;50.786;7.058;2023-09-18T10:25:37;100065.16;;;23.84;70.65
67109;BME280;54027;50.786;7.058;2023-09-18T10:28:04;100074.44;;;23.89;70.52
67109;BME280;54027;50.786;7.058;2023-09-18T10:30:32;100081.41;;;23.90;70.56
67109;BME280;54027;50.786;7.058;2023-09-18T10:33:00;100087.88;;;23.86;70.72
67109;BME280;54027;50.786;7.058;2023-09-18T10:35:26;100103.13;;;23.94;71.61
67109;BME280;54027;50.786;7.058;2023-09-18T10:37:54;100087.00;;;23.98;70.37
67109;BME280;54027;50.786;7.058;2023-09-18T10:40:20;100102.75;;;24.11;70.43
67109;BME280;54027;50.786;7.058;2023-09-18T10:42:47;100098.47;;;24.21;70.43
67109;BME280;54027;50.786;7.058;2023-09-18T10:45:13;100061.28;;;24.24;67.83
67109;BME280;54027;50.786;7.058;2023-09-18T10:47:43;100061.75;;;24.29;67.08
67109;BME280;54027;50.786;7.058;2023-09-18T10:50:10;100055.53;;;24.30;67.57
67109;BME280;54027;50.786;7.058;2023-09-18T10:52:42;100072.69;;;24.36;68.43
67109;BME280;54027;50.786;7.058;2023-09-18T10:55:11;100057.47;;;24.39;67.49
67109;BME280;54027;50.786;7.058;2023-09-18T10:57:37;100037.03;;;24.41;67.21
67109;BME280;54027;50.786;7.058;2023-09-18T11:00:03;100058.06;;;24.43;68.35
67109;BME280;54027;50.786;7.058;2023-09-18T11:02:40;100053.50;;;24.45;67.58
67109;BME280;54027;50.786;7.058;2023-09-18T11:05:06;100043.56;;;24.48;67.61
67109;BME280;54027;50.786;7.058;2023-09-18T11:07:31;100038.28;;;24.60;66.88
67109;BME280;54027;50.786;7.058;2023-09-18T11:09:57;100046.13;;;24.72;66.74
67109;BME280;54027;50.786;7.058;2023-09-18T11:12:42;100035.66;;;24.71;65.34
67109;BME280;54027;50.786;7.058;2023-09-18T11:15:08;99988.78;;;24.62;63.50
67109;BME280;54027;50.786;7.058;2023-09-18T11:17:38;99997.19;;;24.67;63.35
67109;BME280;54027;50.786;7.058;2023-09-18T11:25:38;99990.00;;;24.80;61.42
67109;BME280;54027;50.786;7.058;2023-09-18T11:28:06;100003.06;;;25.03;61.34
67109;BME280;54027;50.786;7.058;2023-09-18T11:30:35;99980.31;;;25.12;60.71
67109;BME280;54027;50.786;7.058;2023-09-18T11:33:05;99988.28;;;25.01;60.12
67109;BME280;54027;50.786;7.058;2023-09-18T11:35:35;99993.81;;;25.09;60.73
67109;BME280;54027;50.786;7.058;2023-09-18T11:38:08;100003.81;;;24.83;61.07
67109;BME280;54027;50.786;7.058;2023-09-18T11:40:36;100008.75;;;24.77;62.07
67109;BME280;54027;50.786;7.058;2023-09-18T11:43:25;100019.31;;;24.88;62.32
67109;BME280;54027;50.786;7.058;2023-09-18T11:45:55;99978.00;;;24.87;60.83
67109;BME280;54027;50.786;7.058;2023-09-18T11:48:25;100007.28;;;24.50;62.27
67109;BME280;54027;50.786;7.058;2023-09-18T11:50:59;100003.91;;;24.48;62.64
67109;BME280;54027;50.786;7.058;2023-09-18T11:53:27;100024.91;;;24.50;63.32
67109;BME280;54027;50.786;7.058;2023-09-18T11:55:53;100001.44;;;24.69;62.34
67109;BME280;54027;50.786;7.058;2023-09-18T11:58:18;99989.03;;;24.92;62.03
67109;BME280;54027;50.786;7.058;2023-09-18T12:00:49;99960.59;;;25.16;60.93
67109;BME280;54027;50.786;7.058;2023-09-18T12:03:19;99930.97;;;25.33;58.96
67109;BME280;54027;50.786;7.058;2023-09-18T12:06:03;99922.19;;;25.44;59.06
67109;BME280;54027;50.786;7.058;2023-09-18T12:08:32;99914.97;;;25.46;58.52
67109;BME280;54027;50.786;7.058;2023-09-18T12:10:58;99939.47;;;25.48;59.85
67109;BME280;54027;50.786;7.058;2023-09-18T12:13:27;99912.06;;;25.49;58.43
67109;BME280;54027;50.786;7.058;2023-09-18T12:15:56;99914.81;;;25.47;58.89
67109;BME280;54027;50.786;7.058;2023-09-18T12:18:24;99898.63;;;25.61;57.74
67109;BME280;54027;50.786;7.058;2023-09-18T12:20:50;99883.66;;;25.51;57.53
67109;BME280;54027;50.786;7.058;2023-09-18T12:23:17;99880.47;;;25.57;57.22
67109;BME280;54027;50.786;7.058;2023-09-18T12:25:50;99883.91;;;25.69;56.70
67109;BME280;54027;50.786;7.058;2023-09-18T12:28:22;99863.50;;;25.80;55.71
67109;BME280;54027;50.786;7.058;2023-09-18T12:30:47;99858.66;;;25.85;55.75
67109;BME280;54027;50.786;7.058;2023-09-18T12:33:13;99844.75;;;25.93;54.92
67109;BME280;54027;50.786;7.058;2023-09-18T12:35:41;99851.72;;;25.94;54.77
67109;BME280;54027;50.786;7.058;2023-09-18T12:38:15;99848.06;;;25.85;55.27
67109;BME280;54027;50.786;7.058;2023-09-18T12:40:41;99854.47;;;25.83;55.45
67109;BME280;54027;50.786;7.058;2023-09-18T12:43:06;99868.72;;;25.91;55.32
67109;BME280;54027;50.786;7.058;2023-09-18T12:45:33;99865.97;;;26.02;55.06
67109;BME280;54027;50.786;7.058;2023-09-18T12:47:59;99879.03;;;26.15;55.16
67109;BME280;54027;50.786;7.058;2023-09-18T12:50:25;99848.53;;;26.21;53.36
67109;BME280;54027;50.786;7.058;2023-09-18T12:52:51;99832.66;;;26.30;52.72
67109;BME280;54027;50.786;7.058;2023-09-18T12:55:26;99831.16;;;26.47;52.42
67109;BME280;54027;50.786;7.058;2023-09-18T12:57:53;99820.44;;;26.58;52.07
67109;BME280;54027;50.786;7.058;2023-09-18T13:00:20;99817.25;;;26.73;51.69
67109;BME280;54027;50.786;7.058;2023-09-18T13:02:51;99816.47;;;26.83;52.05
67109;BME280;54027;50.786;7.058;2023-09-18T13:05:23;99808.91;;;26.88;50.60